FATA weather

Tedderfield Air Park
Tedderfield, Gauteng, South Africa

Public forecast

Using degrees Celsius for public forecast. Weather courtesy of forecast.io.

Closest aviation weather report (METAR) to Tedderfield Air Park

Report is more than 6 hours old.

Closest report is Rand Airport, 11.8 nm (21.9 km) ENE. Retrieved 2020/03/26 16:00 UTC (2 months ago):

FAGM 261600Z 34006KT CAVOK 21/10 Q1020

Closest aviation forecast (TAF) to Tedderfield Air Park

Closest forecast is OR Tambo International Airport, 19.7 nm (36.4 km) NE. Retrieved 2020/05/27 12:00 UTC (2 hours ago):

TAF FAOR 271000Z 2712/2818 19012KT CAVOK TX16/2812Z TN01/2804Z BECMG 2808/2810 28010KT